Time;durP1;ratioP1;P1;durP2;ratioP2;P2;SDS_P1;SDS_P2;PMS_P1;PMS_P2;Temp;Humidity;BMP_temperature;BMP_pressure;BME280_temperature;BME280_humidity;BME280_pressure;Samples;Min_cycle;Max_cycle;Signal;HPM_P1;HPM_P2
2021/08/18 00:02:06;;;;;;;;;7.25;4.75;;;;;18.05;66.18;101736.53;4942459;28;47070;-74
2021/08/18 00:04:31;;;;;;;;;4.25;3.50;;;;;18.06;65.84;101732.03;4939250;28;45551;-75
2021/08/18 00:06:56;;;;;;;;;8.00;4.75;;;;;18.04;65.83;101736.69;4942512;28;45639;-71
2021/08/18 00:09:22;;;;;;;;;6.00;4.00;;;;;18.04;66.04;101731.34;4934790;28;45596;-68
2021/08/18 00:11:47;;;;;;;;;4.00;4.00;;;;;18.01;65.91;101727.19;4940972;28;45905;-74
2021/08/18 00:14:13;;;;;;;;;3.75;3.25;;;;;18.03;66.12;101727.03;4936672;28;45607;-69
2021/08/18 00:16:38;;;;;;;;;5.00;4.00;;;;;18.01;66.43;101727.19;4941662;28;45671;-68
2021/08/18 00:19:04;;;;;;;;;3.75;3.50;;;;;18.00;66.21;101722.84;4943173;28;47406;-74
2021/08/18 00:21:29;;;;;;;;;3.75;2.75;;;;;18.01;66.20;101716.50;4931743;28;55044;-68
2021/08/18 00:23:54;;;;;;;;;4.00;4.00;;;;;18.02;66.38;101717.31;4939984;28;45702;-72
2021/08/18 00:26:26;;;;;;;;;8.50;5.00;;;;;18.02;66.23;101720.00;4941684;28;46569;-74
2021/08/18 00:28:52;;;;;;;;;4.00;4.00;;;;;18.02;66.17;101714.63;4939374;28;45556;-75
2021/08/18 00:31:17;;;;;;;;;2.75;2.50;;;;;18.03;66.32;101719.81;4934330;28;45705;-69
2021/08/18 00:33:42;;;;;;;;;4.00;4.00;;;;;18.03;65.91;101710.97;4925665;28;54366;-68
2021/08/18 00:36:08;;;;;;;;;5.00;4.00;;;;;18.02;66.32;101722.66;4929793;28;45706;-75
2021/08/18 00:38:33;;;;;;;;;5.50;5.00;;;;;18.01;66.34;101715.66;4938428;28;46312;-71
2021/08/18 00:40:59;;;;;;;;;4.25;4.00;;;;;18.01;66.47;101708.47;4935657;28;45546;-67
2021/08/18 00:43:24;;;;;;;;;7.75;4.75;;;;;17.98;66.74;101705.31;4940267;28;45561;-68
2021/08/18 00:45:51;;;;;;;;;3.50;3.50;;;;;17.98;66.74;101705.31;4946881;28;45614;-70
2021/08/18 00:48:16;;;;;;;;;4.00;4.00;;;;;17.96;66.83;101712.69;4945775;28;45520;-66
2021/08/18 00:50:42;;;;;;;;;4.00;3.25;;;;;17.96;66.40;101707.34;4939594;28;46168;-67
2021/08/18 00:53:07;;;;;;;;;5.75;5.00;;;;;17.94;66.80;101709.34;4940163;28;45616;-71
2021/08/18 00:55:33;;;;;;;;;4.00;3.50;;;;;17.92;66.83;101711.34;4949565;28;45639;-66
2021/08/18 00:57:58;;;;;;;;;6.25;3.00;;;;;17.91;67.25;101709.69;4941788;28;45682;-67
2021/08/18 01:00:26;;;;;;;;;5.00;3.50;;;;;17.92;66.78;101711.34;4941028;28;45551;-68
2021/08/18 01:02:52;;;;;;;;;5.25;4.00;;;;;17.93;65.94;101710.38;4939716;28;45562;-68
2021/08/18 01:05:23;;;;;;;;;4.25;3.25;;;;;17.92;66.81;101714.03;4921202;28;45568;-73
2021/08/18 01:07:51;;;;;;;;;4.00;3.00;;;;;17.91;66.82;101715.03;4942245;28;49141;-68
2021/08/18 01:10:22;;;;;;;;;6.00;4.25;;;;;17.90;66.89;101714.19;4951495;28;45498;-71
2021/08/18 01:12:48;;;;;;;;;4.25;2.75;;;;;17.90;66.85;101711.50;4941101;28;45509;-68
2021/08/18 01:15:16;;;;;;;;;4.00;2.25;;;;;17.90;66.80;101705.34;4943030;28;45500;-67
2021/08/18 01:17:43;;;;;;;;;6.00;5.25;;;;;17.91;67.16;101699.00;4939742;28;46218;-74
2021/08/18 01:20:11;;;;;;;;;3.75;3.00;;;;;17.91;67.25;101707.84;4947917;28;47383;-74
2021/08/18 01:22:37;;;;;;;;;6.00;3.75;;;;;17.92;66.96;101698.81;4941316;28;45469;-71
2021/08/18 01:25:06;;;;;;;;;5.00;4.00;;;;;17.90;66.80;101697.31;4950979;28;45481;-68
2021/08/18 01:27:32;;;;;;;;;4.75;4.25;;;;;17.90;67.12;101702.66;4949946;28;45598;-75
2021/08/18 01:29:58;;;;;;;;;5.25;4.00;;;;;17.88;67.28;101696.66;4944997;28;45714;-71
2021/08/18 01:32:23;;;;;;;;;3.00;3.00;;;;;17.87;67.31;101698.50;4942441;28;45789;-66
2021/08/18 01:34:49;;;;;;;;;4.50;4.00;;;;;17.88;67.43;101699.31;4942421;28;45670;-71
2021/08/18 01:37:14;;;;;;;;;6.00;3.50;;;;;17.86;67.47;101701.38;4949705;28;45581;-71
2021/08/18 01:39:39;;;;;;;;;5.25;4.50;;;;;17.87;67.46;101703.00;4947282;28;45995;-71
2021/08/18 01:42:05;;;;;;;;;5.00;3.25;;;;;17.87;67.53;101697.66;4940232;28;46318;-71
2021/08/18 01:44:32;;;;;;;;;3.00;3.00;;;;;17.85;67.71;101703.19;4943176;28;45770;-68
2021/08/18 01:46:58;;;;;;;;;5.00;5.00;;;;;17.82;67.87;101701.69;4946619;28;46708;-73
2021/08/18 01:49:24;;;;;;;;;5.00;4.75;;;;;17.80;67.91;101692.16;4944892;28;46143;-68
2021/08/18 01:51:49;;;;;;;;;4.50;4.50;;;;;17.78;68.03;101695.00;4949583;28;45629;-69
2021/08/18 01:54:15;;;;;;;;;4.75;4.50;;;;;17.76;67.79;101686.31;4942847;28;45498;-71
2021/08/18 01:56:41;;;;;;;;;4.00;4.00;;;;;17.75;67.94;101689.97;4938830;28;45631;-73
2021/08/18 01:59:06;;;;;;;;;7.50;4.75;;;;;17.76;68.09;101691.66;4937260;28;47169;-71
2021/08/18 02:01:31;;;;;;;;;5.50;5.00;;;;;17.76;68.09;101690.84;4942600;28;45670;-70
2021/08/18 02:03:57;;;;;;;;;3.75;3.75;;;;;17.76;68.25;101686.31;4946762;28;45463;-68
2021/08/18 02:06:22;;;;;;;;;4.25;3.25;;;;;17.75;68.11;101681.13;4941396;28;45513;-67
2021/08/18 02:08:48;;;;;;;;;4.00;4.00;;;;;17.75;67.93;101683.81;4937454;28;46717;-73
2021/08/18 02:11:13;;;;;;;;;3.75;3.75;;;;;17.74;67.56;101677.63;4938869;28;46755;-74
2021/08/18 02:13:39;;;;;;;;;6.00;4.00;;;;;17.73;67.27;101681.34;4945956;28;45594;-73
2021/08/18 02:16:04;;;;;;;;;5.25;3.00;;;;;17.72;67.50;101679.66;4939158;28;45564;-73
2021/08/18 02:18:30;;;;;;;;;5.50;4.75;;;;;17.71;67.38;101682.50;4947467;28;46864;-73
2021/08/18 02:20:56;;;;;;;;;7.75;4.00;;;;;17.71;67.22;101671.81;4942915;28;45618;-68
2021/08/18 02:23:21;;;;;;;;;5.00;4.00;;;;;17.70;67.49;101676.31;4937229;28;45693;-72
2021/08/18 02:25:47;;;;;;;;;4.00;4.00;;;;;17.69;67.75;101679.16;4937930;28;45780;-68
2021/08/18 02:28:13;;;;;;;;;4.50;4.50;;;;;17.67;68.12;101676.66;4941093;28;46550;-74
2021/08/18 02:30:39;;;;;;;;;4.00;3.75;;;;;17.65;68.68;101673.31;4927666;28;45796;-71
2021/08/18 02:33:05;;;;;;;;;3.25;3.25;;;;;17.64;69.20;101674.34;4922175;28;45662;-71
2021/08/18 02:35:31;;;;;;;;;5.75;3.50;;;;;17.60;69.06;101670.34;4938928;28;45659;-75
2021/08/18 02:37:58;;;;;;;;;5.00;3.25;;;;;17.57;69.14;101670.69;4936842;28;46358;-72
2021/08/18 02:40:23;;;;;;;;;4.25;3.00;;;;;17.55;69.70;101675.38;4940912;28;45706;-69
2021/08/18 02:42:51;;;;;;;;;3.75;3.50;;;;;17.53;69.91;101667.53;4949430;28;46030;-66
2021/08/18 02:45:18;;;;;;;;;5.50;4.00;;;;;17.51;69.74;101671.41;4947177;28;50142;-69
2021/08/18 02:47:43;;;;;;;;;4.25;4.00;;;;;17.49;70.55;101668.88;4938330;28;46184;-73
2021/08/18 02:50:11;;;;;;;;;3.25;3.00;;;;;17.49;69.95;101660.03;4936712;28;45886;-68
2021/08/18 02:52:37;;;;;;;;;2.75;2.00;;;;;17.50;70.37;101664.38;4940022;28;45594;-72
2021/08/18 02:55:03;;;;;;;;;4.75;4.00;;;;;17.50;70.39;101667.88;4943216;28;45609;-71
2021/08/18 02:57:29;;;;;;;;;4.25;2.75;;;;;17.48;70.13;101658.34;4941693;28;47061;-67
2021/08/18 02:59:56;;;;;;;;;4.00;3.75;;;;;17.45;69.89;101659.53;4951174;28;45742;-68
2021/08/18 03:02:25;;;;;;;;;5.00;4.00;;;;;17.48;69.50;101661.03;4938156;28;45523;-74
2021/08/18 03:04:50;;;;;;;;;3.50;3.00;;;;;17.47;69.50;101654.03;4947728;28;45576;-72
2021/08/18 03:07:16;;;;;;;;;3.50;3.00;;;;;17.47;69.03;101656.69;4939517;28;46466;-69
2021/08/18 03:09:41;;;;;;;;;3.00;3.00;;;;;17.48;69.49;101664.56;4942683;28;45698;-67
2021/08/18 03:12:07;;;;;;;;;4.25;4.00;;;;;17.48;69.54;101661.88;4944864;28;45550;-71
2021/08/18 03:14:33;;;;;;;;;3.75;3.75;;;;;17.49;69.13;101660.88;4940317;28;45523;-72
2021/08/18 03:16:58;;;;;;;;;4.00;4.00;;;;;17.49;69.58;101662.72;4945181;28;45514;-68
2021/08/18 03:19:23;;;;;;;;;6.00;3.25;;;;;17.48;69.22;101667.22;4943416;28;45548;-69
2021/08/18 03:21:50;;;;;;;;;4.25;3.50;;;;;17.47;69.99;101664.72;4964178;28;45539;-68
2021/08/18 03:24:15;;;;;;;;;5.50;4.00;;;;;17.42;70.29;101663.38;4939700;28;45560;-68
2021/08/18 03:26:40;;;;;;;;;4.00;4.00;;;;;17.40;69.86;101654.69;4946195;28;46295;-68
2021/08/18 03:29:06;;;;;;;;;4.00;4.00;;;;;17.37;70.43;101651.56;4937210;28;45653;-74
2021/08/18 03:31:31;;;;;;;;;3.25;3.25;;;;;17.35;70.59;101657.06;4936017;28;46322;-74
2021/08/18 03:33:57;;;;;;;;;4.00;4.00;;;;;17.33;70.71;101653.75;4942444;28;45685;-74
2021/08/18 03:36:22;;;;;;;;;6.50;5.00;;;;;17.30;70.64;101651.41;4939810;28;46177;-67
2021/08/18 03:38:47;;;;;;;;;5.75;5.25;;;;;17.28;70.79;101645.38;4937764;28;45577;-73
2021/08/18 03:41:13;;;;;;;;;5.00;5.00;;;;;17.29;70.80;101655.09;4933721;28;45714;-68
2021/08/18 03:43:38;;;;;;;;;5.50;4.00;;;;;17.30;70.69;101654.06;4940519;28;46039;-69
2021/08/18 03:46:03;;;;;;;;;5.00;3.50;;;;;17.31;70.52;101657.56;4941574;28;46080;-70
2021/08/18 03:48:29;;;;;;;;;5.75;4.00;;;;;17.31;70.91;101657.56;4939812;28;45453;-68
2021/08/18 03:50:54;;;;;;;;;4.75;4.25;;;;;17.33;70.58;101658.22;4920609;28;45504;-68
2021/08/18 03:53:20;;;;;;;;;5.25;5.25;;;;;17.31;70.33;101654.91;4938997;28;45451;-69
2021/08/18 03:55:45;;;;;;;;;5.75;5.00;;;;;17.31;70.70;101649.53;4942479;28;47186;-70
2021/08/18 03:58:10;;;;;;;;;4.75;4.75;;;;;17.32;70.58;101651.22;4949088;28;45656;-67
2021/08/18 04:00:36;;;;;;;;;5.00;5.00;;;;;17.32;70.65;101644.03;4939695;28;45621;-72
2021/08/18 04:03:02;;;;;;;;;6.25;5.75;;;;;17.33;70.34;101648.41;4946233;28;45551;-74
2021/08/18 04:05:28;;;;;;;;;5.00;4.00;;;;;17.34;70.22;101652.72;4937898;28;45408;-72
2021/08/18 04:07:53;;;;;;;;;9.75;6.25;;;;;17.35;70.48;101651.72;4944912;28;45589;-71
2021/08/18 04:10:19;;;;;;;;;6.25;6.25;;;;;17.37;70.08;101654.22;4933718;28;45535;-68
2021/08/18 04:13:02;;;;;;;;;10.00;4.00;;;;;17.38;70.07;101642.50;4944594;28;45532;-71
2021/08/18 04:15:35;;;;;;;;;5.00;4.75;;;;;17.40;70.23;101652.03;4940929;28;47627;-71
2021/08/18 04:18:00;;;;;;;;;6.00;4.25;;;;;17.41;70.07;101645.69;4944135;28;45567;-69
2021/08/18 04:20:25;;;;;;;;;5.00;5.00;;;;;17.40;69.95;101646.69;4938375;28;46986;-73
2021/08/18 04:22:51;;;;;;;;;4.50;4.50;;;;;17.40;70.07;101646.69;4941141;28;45435;-68
2021/08/18 04:25:18;;;;;;;;;7.00;6.00;;;;;17.41;69.95;101645.69;4941752;28;45947;-66
2021/08/18 04:27:45;;;;;;;;;8.25;5.00;;;;;17.41;70.11;101644.88;4945630;28;45614;-67
2021/08/18 04:30:13;;;;;;;;;6.50;6.50;;;;;17.43;70.00;101650.84;4943639;28;45435;-73
2021/08/18 04:32:38;;;;;;;;;6.25;5.00;;;;;17.42;69.96;101655.38;4921230;28;45981;-69
2021/08/18 04:35:05;;;;;;;;;6.75;5.50;;;;;17.41;70.25;101656.38;4942070;28;46306;-69
2021/08/18 04:37:31;;;;;;;;;6.25;5.50;;;;;17.40;70.34;101654.69;4941022;28;51307;-69
2021/08/18 04:39:56;;;;;;;;;7.25;6.00;;;;;17.40;70.69;101649.34;4942659;28;45740;-68
2021/08/18 04:42:22;;;;;;;;;8.00;6.00;;;;;17.40;70.67;101653.88;4941785;28;45492;-67
2021/08/18 04:44:47;;;;;;;;;6.75;5.00;;;;;17.39;70.71;101658.38;4939303;28;47447;-71
2021/08/18 04:47:12;;;;;;;;;5.00;5.00;;;;;17.40;70.71;101654.69;4944531;28;45623;-71
2021/08/18 04:49:38;;;;;;;;;7.50;4.50;;;;;17.39;70.42;101652.22;4940274;28;45645;-74
2021/08/18 04:52:03;;;;;;;;;7.50;6.75;;;;;17.37;70.53;101657.72;4943910;28;45590;-68
2021/08/18 04:54:29;;;;;;;;;5.50;5.50;;;;;17.37;70.48;101660.38;4952355;28;45675;-67
2021/08/18 04:56:54;;;;;;;;;7.25;5.50;;;;;17.37;70.37;101655.06;4935826;28;45559;-68
2021/08/18 04:59:19;;;;;;;;;5.75;5.50;;;;;17.39;70.90;101658.38;4948157;28;45585;-71
2021/08/18 05:01:45;;;;;;;;;8.75;6.00;;;;;17.41;70.63;101659.06;4934684;28;45585;-68
2021/08/18 05:04:10;;;;;;;;;6.50;5.50;;;;;17.40;70.50;101649.34;4940990;28;51841;-71
2021/08/18 05:06:35;;;;;;;;;8.50;7.00;;;;;17.39;70.51;101655.72;4942400;28;46188;-70
2021/08/18 05:09:01;;;;;;;;;6.25;5.25;;;;;17.40;70.45;101654.69;4943658;28;45504;-72
2021/08/18 05:11:26;;;;;;;;;4.25;4.25;;;;;17.42;70.19;101660.72;4944151;28;45542;-77
2021/08/18 05:13:52;;;;;;;;;7.00;7.00;;;;;17.44;70.35;101654.38;4942940;28;47291;-72
2021/08/18 05:16:18;;;;;;;;;8.00;7.25;;;;;17.47;70.39;101659.38;4947104;28;45622;-72
2021/08/18 05:18:43;;;;;;;;;8.00;6.75;;;;;17.49;70.53;101657.38;4951948;28;45777;-66
2021/08/18 05:21:08;;;;;;;;;7.00;6.75;;;;;17.51;70.01;101655.34;4938720;28;45778;-70
2021/08/18 05:23:34;;;;;;;;;9.75;8.00;;;;;17.53;70.22;101650.66;4937918;28;46041;-67
2021/08/18 05:25:59;;;;;;;;;8.00;8.00;;;;;17.54;69.91;101660.34;4939189;28;46335;-69
2021/08/18 05:28:24;;;;;;;;;8.00;8.00;;;;;17.55;70.20;101652.13;4935723;28;45528;-68
2021/08/18 05:30:50;;;;;;;;;6.75;6.75;;;;;17.57;69.98;101660.00;4938603;28;45776;-69
2021/08/18 05:33:16;;;;;;;;;5.25;5.25;;;;;17.59;69.94;101655.31;4940158;28;47167;-67
2021/08/18 05:35:41;;;;;;;;;9.00;5.50;;;;;17.61;70.24;101662.16;4937852;28;45634;-68
2021/08/18 05:38:07;;;;;;;;;6.00;5.00;;;;;17.65;70.14;101653.78;4932094;28;45718;-76
2021/08/18 05:40:32;;;;;;;;;5.75;4.25;;;;;17.65;70.33;101662.63;4932969;28;45639;-69
2021/08/18 05:42:58;;;;;;;;;6.25;5.75;;;;;17.66;69.65;101664.31;4935556;28;45990;-74
2021/08/18 05:45:23;;;;;;;;;8.75;7.00;;;;;17.67;69.99;101663.28;4936020;28;45631;-68
2021/08/18 05:47:48;;;;;;;;;5.25;5.25;;;;;17.66;70.22;101669.66;4934989;28;45603;-71
2021/08/18 05:50:14;;;;;;;;;4.75;4.00;;;;;17.68;70.28;101670.31;4936325;28;45706;-67
2021/08/18 05:52:39;;;;;;;;;5.25;5.25;;;;;17.70;70.10;101665.63;4943649;28;45714;-70
2021/08/18 05:55:05;;;;;;;;;6.00;5.00;;;;;17.70;69.66;101665.63;4939947;28;45702;-67
2021/08/18 05:57:31;;;;;;;;;6.50;5.25;;;;;17.71;69.72;101667.28;4937866;28;45702;-69
2021/08/18 05:59:56;;;;;;;;;6.50;6.00;;;;;17.71;70.30;101664.63;4934575;28;45636;-69
2021/08/18 06:02:22;;;;;;;;;5.75;5.75;;;;;17.74;70.36;101672.28;4934103;28;46286;-75
2021/08/18 06:04:47;;;;;;;;;8.00;8.00;;;;;17.74;70.26;101666.94;4933434;28;45607;-68
2021/08/18 06:07:12;;;;;;;;;5.25;5.00;;;;;17.76;70.05;101680.97;4910871;28;45630;-75
2021/08/18 06:09:38;;;;;;;;;6.00;5.50;;;;;17.79;70.21;101667.25;4936523;28;46274;-67
2021/08/18 06:12:05;;;;;;;;;6.75;6.75;;;;;17.80;70.36;101666.28;4935689;28;46198;-77
2021/08/18 06:14:30;;;;;;;;;5.75;5.75;;;;;17.82;70.58;101668.78;4944340;28;45606;-72
2021/08/18 06:16:55;;;;;;;;;8.00;6.50;;;;;17.84;70.06;101667.59;4932431;28;45763;-76
2021/08/18 06:19:21;;;;;;;;;7.75;6.00;;;;;17.88;69.95;101673.44;4928803;28;45632;-73
2021/08/18 06:21:46;;;;;;;;;7.50;6.25;;;;;17.93;70.41;101675.59;4939294;28;47108;-72
2021/08/18 06:24:26;;;;;;;;;7.25;6.50;;;;;17.93;69.88;101675.59;4933891;28;45536;-73
2021/08/18 06:26:51;;;;;;;;;6.00;6.00;;;;;17.95;70.01;101681.56;4937390;28;45477;-73
2021/08/18 06:29:17;;;;;;;;;9.00;8.00;;;;;17.96;70.03;101680.59;4931461;28;45612;-72
2021/08/18 06:31:43;;;;;;;;;6.75;6.00;;;;;17.99;70.18;101674.88;4944228;28;45947;-78
2021/08/18 06:34:09;;;;;;;;;8.00;6.00;;;;;18.02;69.96;101682.53;4918403;28;45832;-67
2021/08/18 06:36:34;;;;;;;;;9.75;7.00;;;;;18.04;69.68;101688.56;4942168;28;45550;-75
2021/08/18 06:38:59;;;;;;;;;11.00;6.00;;;;;18.08;69.64;101681.84;4936690;28;51644;-67
2021/08/18 06:41:24;;;;;;;;;6.00;5.00;;;;;18.12;69.39;101679.66;4933797;28;46496;-80
2021/08/18 06:43:51;;;;;;;;;4.50;3.75;;;;;18.17;69.59;101686.13;4938708;28;45999;-68
2021/08/18 06:46:17;;;;;;;;;5.00;5.00;;;;;18.20;69.54;101683.13;4934805;28;45570;-68
2021/08/18 06:48:42;;;;;;;;;5.75;5.50;;;;;18.27;69.24;101688.56;4940710;28;45424;-69
2021/08/18 06:51:08;;;;;;;;;5.75;5.50;;;;;18.31;68.71;101683.72;4931584;28;46760;-74
2021/08/18 06:53:33;;;;;;;;;6.00;6.00;;;;;18.35;68.88;101685.03;4936934;28;45680;-80
2021/08/18 06:55:58;;;;;;;;;6.50;5.25;;;;;18.42;68.71;101685.97;4931841;28;46246;-81
2021/08/18 06:58:24;;;;;;;;;6.00;5.50;;;;;18.49;68.42;101697.63;4936243;28;45659;-73
2021/08/18 07:00:49;;;;;;;;;5.25;5.25;;;;;18.56;68.20;101695.91;4940888;28;47516;-73
2021/08/18 07:03:14;;;;;;;;;6.50;5.00;;;;;18.62;68.32;101687.19;4931057;28;45707;-73
2021/08/18 07:05:40;;;;;;;;;8.25;4.50;;;;;18.67;68.24;101689.31;4937336;28;45586;-73
2021/08/18 07:08:05;;;;;;;;;4.00;3.00;;;;;18.70;67.70;101695.16;4938767;28;45605;-72
2021/08/18 07:10:30;;;;;;;;;8.00;4.50;;;;;18.70;67.48;101697.00;4935668;28;45573;-72
2021/08/18 07:12:56;;;;;;;;;9.00;8.00;;;;;18.70;67.84;101689.78;4940051;28;45799;-71
2021/08/18 07:15:21;;;;;;;;;6.50;6.50;;;;;18.77;68.05;101689.94;4934506;28;45555;-72
2021/08/18 07:17:47;;;;;;;;;8.50;6.25;;;;;18.87;67.82;101692.38;4942077;28;45559;-83
2021/08/18 07:20:13;;;;;;;;;5.75;4.75;;;;;18.96;67.49;101690.44;4932759;28;46028;-69
2021/08/18 07:22:39;;;;;;;;;5.75;5.50;;;;;19.01;66.96;101686.19;4945322;28;45703;-68
2021/08/18 07:25:05;;;;;;;;;8.50;6.25;;;;;19.07;67.02;101681.97;4940979;28;45918;-69
2021/08/18 07:27:30;;;;;;;;;7.00;7.00;;;;;19.15;67.10;101686.41;4943610;28;45783;-66
2021/08/18 07:29:57;;;;;;;;;6.75;5.25;;;;;19.24;66.82;101682.66;4940211;28;45451;-66
2021/08/18 07:32:22;;;;;;;;;7.50;5.00;;;;;19.42;67.03;101680.41;4940178;28;45439;-71
2021/08/18 07:34:48;;;;;;;;;11.00;7.50;;;;;19.67;66.58;101680.13;4924685;28;46033;-69
2021/08/18 07:37:14;;;;;;;;;7.00;5.75;;;;;19.91;65.80;101671.81;4935663;28;45484;-70
2021/08/18 07:39:39;;;;;;;;;6.00;5.50;;;;;20.03;65.20;101673.97;4942174;28;46177;-71
2021/08/18 07:42:04;;;;;;;;;6.00;5.75;;;;;20.06;65.16;101673.63;4932937;28;46094;-72
2021/08/18 07:44:30;;;;;;;;;7.00;6.25;;;;;20.12;64.63;101678.22;4918156;28;45615;-71
2021/08/18 07:46:55;;;;;;;;;7.00;5.00;;;;;20.21;64.38;101679.78;4940875;28;45551;-68
2021/08/18 07:49:21;;;;;;;;;5.25;4.75;;;;;20.34;64.36;101674.53;4943754;28;45467;-71
2021/08/18 07:51:46;;;;;;;;;6.50;3.75;;;;;20.44;63.87;101674.22;4928306;28;45834;-69
2021/08/18 07:54:11;;;;;;;;;5.00;3.00;;;;;20.51;64.02;101671.59;4937747;28;45590;-69
2021/08/18 07:56:37;;;;;;;;;9.00;6.00;;;;;20.60;63.24;101670.50;4948522;28;45581;-67
2021/08/18 07:59:02;;;;;;;;;6.50;4.25;;;;;20.76;63.38;101677.44;4948644;28;47210;-66
2021/08/18 08:01:27;;;;;;;;;6.50;5.00;;;;;20.93;62.98;101675.31;4925405;28;45678;-67
2021/08/18 08:03:53;;;;;;;;;5.25;5.25;;;;;21.24;62.67;101674.88;4935809;28;45453;-71
2021/08/18 08:06:18;;;;;;;;;5.00;4.00;;;;;21.67;61.13;101672.88;4945981;28;45659;-69
2021/08/18 08:08:44;;;;;;;;;5.25;5.00;;;;;21.95;61.04;101673.81;4904220;28;47027;-67
2021/08/18 08:11:09;;;;;;;;;6.50;5.50;;;;;22.20;60.90;101671.44;4938237;28;45542;-69
2021/08/18 08:13:34;;;;;;;;;4.00;4.00;;;;;22.33;59.75;101669.59;4938520;28;45538;-69
2021/08/18 08:16:00;;;;;;;;;4.25;4.25;;;;;22.45;59.59;101668.97;4946839;28;45464;-69
2021/08/18 08:18:25;;;;;;;;;6.25;4.25;;;;;22.57;58.76;101672.72;4949562;28;45504;-71
2021/08/18 08:20:51;;;;;;;;;4.00;4.00;;;;;22.57;59.37;101671.91;4937497;28;45464;-69
2021/08/18 08:23:16;;;;;;;;;4.75;4.50;;;;;22.58;59.19;101676.28;4950588;28;46003;-68
2021/08/18 08:25:41;;;;;;;;;5.00;4.00;;;;;22.60;58.48;101677.72;4942207;28;45600;-70
2021/08/18 08:28:07;;;;;;;;;4.75;3.50;;;;;22.59;58.47;101681.44;4944616;28;45972;-70
2021/08/18 08:30:33;;;;;;;;;6.50;5.00;;;;;22.59;58.74;101673.34;4952056;28;45531;-68
2021/08/18 08:32:58;;;;;;;;;5.00;3.75;;;;;22.58;58.84;101678.97;4946667;28;45733;-69
2021/08/18 08:35:24;;;;;;;;;5.25;3.50;;;;;22.62;58.98;101681.00;4950264;28;45725;-70
2021/08/18 08:37:49;;;;;;;;;4.50;4.50;;;;;22.71;58.84;101684.34;4951342;28;46116;-66
2021/08/18 08:40:15;;;;;;;;;4.00;4.00;;;;;22.74;57.93;101682.06;4951573;28;45512;-67
2021/08/18 08:42:41;;;;;;;;;4.00;4.00;;;;;22.69;58.88;101681.03;4947341;28;45533;-71
2021/08/18 08:45:08;;;;;;;;;4.00;4.00;;;;;22.58;58.23;101677.09;4943277;28;50304;-68
2021/08/18 08:47:35;;;;;;;;;5.00;5.00;;;;;22.41;58.46;101683.91;4940097;28;47219;-69
2021/08/18 08:50:03;;;;;;;;;3.50;3.50;;;;;22.26;58.93;101684.09;4946858;28;45667;-69
2021/08/18 08:52:28;;;;;;;;;5.25;4.00;;;;;22.14;58.95;101681.13;4948788;28;45524;-70
2021/08/18 08:54:54;;;;;;;;;5.25;3.75;;;;;22.03;59.15;101687.09;4944414;28;45615;-70
2021/08/18 08:57:19;;;;;;;;;4.25;4.00;;;;;21.94;59.82;101693.69;4928418;28;46175;-69
2021/08/18 08:59:44;;;;;;;;;6.00;4.00;;;;;21.84;59.41;101688.69;4951031;28;46490;-70
2021/08/18 09:02:12;;;;;;;;;5.50;5.00;;;;;21.69;59.63;101684.28;4947409;28;45490;-69
2021/08/18 09:04:48;;;;;;;;;5.00;4.00;;;;;21.57;59.69;101691.25;4933022;28;45686;-67
2021/08/18 09:07:23;;;;;;;;;6.00;5.00;;;;;21.53;59.88;101687.28;4934156;28;53143;-67
2021/08/18 09:10:00;;;;;;;;;5.75;5.00;;;;;21.52;59.89;101690.19;4929465;28;45488;-67
2021/08/18 09:12:37;;;;;;;;;6.75;4.75;;;;;21.46;60.04;101686.41;4923297;28;45591;-68
2021/08/18 09:15:17;;;;;;;;;6.00;5.50;;;;;21.37;60.16;101688.41;4929970;28;45547;-67
2021/08/18 09:17:43;;;;;;;;;6.25;4.50;;;;;21.34;60.47;101686.13;4921226;28;46417;-70
2021/08/18 09:20:12;;;;;;;;;6.00;5.00;;;;;21.32;59.93;101682.81;4913616;28;45586;-70
2021/08/18 09:22:53;;;;;;;;;7.75;5.75;;;;;21.26;60.10;101686.28;4920301;28;45886;-71
2021/08/18 09:25:36;;;;;;;;;5.00;5.00;;;;;21.22;61.17;101688.53;4921907;28;45496;-69
2021/08/18 09:28:01;;;;;;;;;2.75;2.75;;;;;21.24;60.82;101682.94;4930613;28;46115;-70
2021/08/18 09:30:29;;;;;;;;;5.00;5.00;;;;;21.19;60.41;101680.88;4923802;28;45503;-71
2021/08/18 09:32:59;;;;;;;;;4.00;4.00;;;;;21.13;60.39;101684.34;4930764;28;46179;-69
2021/08/18 09:35:27;;;;;;;;;4.00;4.00;;;;;21.06;60.19;101680.75;4918956;28;45760;-71
2021/08/18 09:37:59;;;;;;;;;5.00;4.00;;;;;21.03;60.88;101687.34;4921570;28;46206;-70
2021/08/18 09:40:28;;;;;;;;;4.50;4.50;;;;;21.07;60.66;101682.44;4916149;28;45584;-69
2021/08/18 09:43:05;;;;;;;;;5.00;3.75;;;;;21.15;60.92;101678.78;4938051;28;45685;-67
2021/08/18 09:45:32;;;;;;;;;5.00;5.00;;;;;21.31;61.62;101674.94;4926487;28;45487;-69
2021/08/18 09:48:06;;;;;;;;;5.50;4.50;;;;;21.55;60.43;101669.09;4918485;28;46881;-71
2021/08/18 09:50:44;;;;;;;;;5.75;5.00;;;;;21.85;59.38;101668.81;4926984;28;45472;-69
2021/08/18 09:53:15;;;;;;;;;6.25;4.50;;;;;22.09;59.47;101665.56;4917200;28;45537;-73
2021/08/18 09:55:49;;;;;;;;;6.25;5.25;;;;;22.34;58.65;101667.72;4918557;28;48079;-70
2021/08/18 09:58:35;;;;;;;;;5.75;5.75;;;;;22.53;57.73;101668.81;4927241;28;45587;-66
2021/08/18 10:01:05;;;;;;;;;5.00;3.50;;;;;22.43;57.50;101665.69;4924368;28;49072;-68
2021/08/18 10:03:32;;;;;;;;;5.00;5.00;;;;;22.29;57.81;101671.03;4922392;28;45490;-66
2021/08/18 10:05:58;;;;;;;;;5.00;4.25;;;;;22.23;57.74;101668.31;4929385;28;48320;-68
2021/08/18 10:08:24;;;;;;;;;4.00;4.00;;;;;22.26;58.26;101665.25;4941342;28;45707;-65
2021/08/18 10:10:50;;;;;;;;;4.00;4.00;;;;;22.45;58.98;101668.97;4937992;28;45492;-65
2021/08/18 10:13:16;;;;;;;;;8.50;5.00;;;;;22.71;57.80;101662.78;4923673;28;46574;-68
2021/08/18 10:15:42;;;;;;;;;4.25;4.25;;;;;22.90;57.50;101670.03;4939953;28;46543;-68
2021/08/18 10:18:08;;;;;;;;;5.00;5.00;;;;;22.99;57.44;101683.31;4926918;28;47171;-71
2021/08/18 10:20:36;;;;;;;;;7.50;5.00;;;;;22.98;56.80;101679.00;4933855;28;46182;-66
2021/08/18 10:23:06;;;;;;;;;5.00;5.00;;;;;22.90;57.59;101683.53;4933340;28;45607;-65
2021/08/18 10:25:48;;;;;;;;;5.50;3.00;;;;;22.82;57.62;101672.94;4943270;28;45661;-68
2021/08/18 10:28:16;;;;;;;;;5.00;4.00;;;;;22.76;58.06;101679.16;4940422;28;53506;-66
2021/08/18 10:30:49;;;;;;;;;3.50;2.75;;;;;22.74;57.28;101668.56;4944988;28;46208;-68
2021/08/18 10:33:53;;;;;;;;;4.75;4.00;;;;;22.66;57.71;101673.34;4940002;28;45602;-75
2021/08/18 10:36:41;;;;;;;;;2.75;2.75;;;;;22.54;58.69;101673.13;4938795;28;50031;-68
2021/08/18 10:39:18;;;;;;;;;4.25;4.00;;;;;22.54;59.85;101673.13;4911475;28;47716;-69
2021/08/18 10:42:00;;;;;;;;;3.75;3.75;;;;;22.63;59.53;101676.47;4940543;28;45448;-69
2021/08/18 10:44:35;;;;;;;;;2.00;2.00;;;;;22.73;58.41;101658.84;4925533;28;46691;-68
2021/08/18 10:47:19;;;;;;;;;2.00;2.00;;;;;22.84;58.45;101654.69;4939298;28;45457;-68
2021/08/18 10:49:47;;;;;;;;;1.00;1.00;;;;;23.03;57.64;101661.13;4924324;28;51420;-72
2021/08/18 10:52:32;;;;;;;;;1.00;1.00;;;;;23.26;56.75;101655.28;4938130;28;45575;-69
2021/08/18 10:55:01;;;;;;;;;1.00;1.00;;;;;23.57;57.91;101659.13;4940662;28;45946;-66
2021/08/18 10:57:49;;;;;;;;;1.00;1.00;;;;;24.13;55.99;101644.97;4948416;28;45781;-68
2021/08/18 11:00:23;;;;;;;;;1.50;1.00;;;;;24.81;55.08;101644.25;4926457;28;51380;-66
2021/08/18 11:02:58;;;;;;;;;1.00;1.00;;;;;26.13;53.97;101642.97;4941722;28;45840;-71
2021/08/18 11:05:26;;;;;;;;;1.00;1.00;;;;;27.73;51.28;101634.69;4941462;28;46785;-69
2021/08/18 11:08:05;;;;;;;;;4.00;1.00;;;;;28.48;49.58;101641.75;4950449;28;46116;-70
2021/08/18 11:10:32;;;;;;;;;2.00;2.00;;;;;28.75;47.76;101628.31;4943942;28;53144;-69
2021/08/18 11:12:59;;;;;;;;;1.50;1.50;;;;;28.97;47.02;101632.97;4940291;28;45679;-69
2021/08/18 11:15:26;;;;;;;;;1.50;1.50;;;;;29.58;46.45;101628.34;4939542;28;46155;-67
2021/08/18 11:17:54;;;;;;;;;2.75;2.00;;;;;30.29;44.60;101630.16;4938365;28;45607;-70
2021/08/18 11:20:25;;;;;;;;;2.00;2.00;;;;;30.54;44.57;101630.38;4926512;28;48784;-75
2021/08/18 11:22:59;;;;;;;;;2.00;2.00;;;;;30.39;43.59;101631.09;4937046;28;45464;-70
2021/08/18 11:25:27;;;;;;;;;3.00;2.00;;;;;30.00;43.84;101625.81;4933672;28;46024;-70